createdAt,value
2017-04-10T00:00:09.337Z,10.48
2017-04-10T00:01:07.823Z,11.33
2017-04-10T00:02:06.339Z,11.50
2017-04-10T00:03:04.902Z,10.73
2017-04-10T00:04:03.420Z,10.70
2017-04-10T00:05:01.963Z,11.37
2017-04-10T00:06:00.714Z,10.37
2017-04-10T00:06:59.243Z,10.13
2017-04-10T00:07:57.792Z,10.35
2017-04-10T00:08:56.416Z,11.60
2017-04-10T00:09:54.946Z,10.92
2017-04-10T00:10:53.434Z,10.42
2017-04-10T00:11:51.962Z,11.77
2017-04-10T00:12:50.467Z,11.17
2017-04-10T00:13:48.951Z,10.30
2017-04-10T00:14:47.443Z,11.58
2017-04-10T00:15:46.047Z,10.80
2017-04-10T00:16:44.570Z,11.23
2017-04-10T00:17:43.159Z,11.28
2017-04-10T00:18:41.948Z,12.05
2017-04-10T00:19:40.559Z,11.35
2017-04-10T00:20:39.143Z,10.68
2017-04-10T00:21:37.977Z,10.85
2017-04-10T00:22:36.580Z,10.63
2017-04-10T00:23:35.079Z,10.75
2017-04-10T00:24:33.583Z,10.78
2017-04-10T00:25:32.062Z,12.15
2017-04-10T00:26:30.602Z,10.45
2017-04-10T00:27:29.108Z,11.27
2017-04-10T00:28:27.587Z,10.37
2017-04-10T00:29:26.111Z,10.47
2017-04-10T00:30:24.600Z,10.90
2017-04-10T00:31:23.181Z,11.05
2017-04-10T00:32:21.755Z,10.65
2017-04-10T00:33:20.255Z,10.40
2017-04-10T00:34:18.763Z,9.97
2017-04-10T00:35:17.245Z,9.75
2017-04-10T00:36:15.748Z,10.68
2017-04-10T00:37:14.310Z,11.23
2017-04-10T00:38:12.940Z,9.50
2017-04-10T00:39:11.455Z,10.37
2017-04-10T00:40:09.952Z,10.20
2017-04-10T00:41:08.463Z,11.25
2017-04-10T00:42:07.051Z,11.37
2017-04-10T00:43:05.574Z,10.38
2017-04-10T00:44:04.079Z,9.77
2017-04-10T00:45:02.605Z,10.50
2017-04-10T00:46:01.140Z,12.10
2017-04-10T00:46:59.643Z,10.53
2017-04-10T00:47:58.161Z,11.15
2017-04-10T00:48:56.652Z,10.85
2017-04-10T00:49:55.176Z,10.58
2017-04-10T00:50:53.727Z,10.50
2017-04-10T00:51:52.275Z,11.45
2017-04-10T00:52:50.790Z,11.47
2017-04-10T00:53:49.301Z,10.95
2017-04-10T00:54:47.831Z,9.78
2017-04-10T00:55:46.331Z,11.72
2017-04-10T00:56:44.851Z,10.82
2017-04-10T00:57:43.367Z,11.00
2017-04-10T00:58:41.866Z,10.65
2017-04-10T00:59:40.374Z,10.97
2017-04-10T01:00:38.980Z,11.70
2017-04-10T01:01:37.552Z,11.33
2017-04-10T01:02:36.107Z,10.17
2017-04-10T01:03:34.630Z,10.40
2017-04-10T01:04:33.165Z,9.85
2017-04-10T01:05:31.673Z,10.32
2017-04-10T01:06:30.191Z,10.95
2017-04-10T01:07:28.671Z,10.73
2017-04-10T01:08:27.217Z,11.28
2017-04-10T01:09:26.510Z,10.45
2017-04-10T01:10:25.107Z,11.65
2017-04-10T01:11:23.792Z,10.42
2017-04-10T01:12:22.269Z,10.92
2017-04-10T01:13:20.805Z,10.95
2017-04-10T01:14:19.380Z,11.12
2017-04-10T01:15:17.930Z,11.25
2017-04-10T01:16:16.422Z,10.20
2017-04-10T01:17:14.911Z,12.15
2017-04-10T01:18:13.487Z,10.90
2017-04-10T01:19:12.001Z,11.55
2017-04-10T01:20:10.531Z,11.20
2017-04-10T01:21:09.097Z,11.73
2017-04-10T01:22:07.561Z,10.63
2017-04-10T01:23:06.039Z,10.58
2017-04-10T01:24:04.571Z,10.48
2017-04-10T01:25:03.079Z,10.82
2017-04-10T01:26:01.674Z,10.37
2017-04-10T01:27:00.270Z,10.27
2017-04-10T01:27:58.851Z,11.52
2017-04-10T01:28:57.405Z,11.40
2017-04-10T01:29:55.931Z,9.75
2017-04-10T01:30:54.454Z,10.83
2017-04-10T01:31:52.983Z,10.72
2017-04-10T01:32:51.534Z,10.17
2017-04-10T01:33:50.020Z,11.93
2017-04-10T01:34:48.562Z,10.33
2017-04-10T01:35:47.156Z,10.77
2017-04-10T01:36:45.664Z,10.58
2017-04-10T01:37:44.191Z,9.57
2017-04-10T01:38:42.719Z,10.60
2017-04-10T01:39:41.320Z,10.57
2017-04-10T01:40:39.859Z,10.42
2017-04-10T01:41:38.393Z,10.33
2017-04-10T01:42:36.913Z,10.92
2017-04-10T01:43:35.421Z,9.33
2017-04-10T01:44:34.027Z,10.68
2017-04-10T01:45:32.659Z,10.20
2017-04-10T01:46:31.275Z,9.62
2017-04-10T01:47:29.942Z,8.85
2017-04-10T01:48:28.555Z,10.13
2017-04-10T01:49:27.142Z,8.73
2017-04-10T01:50:25.687Z,9.77
2017-04-10T01:51:24.186Z,9.85
2017-04-10T01:52:22.746Z,9.03
2017-04-10T01:53:21.250Z,8.85
2017-04-10T01:54:19.752Z,11.37
2017-04-10T01:55:18.293Z,9.43
2017-04-10T01:56:16.803Z,9.25
2017-04-10T01:57:15.394Z,9.82
2017-04-10T01:58:13.882Z,8.85
2017-04-10T01:59:12.403Z,10.45
2017-04-10T02:00:10.919Z,9.27
2017-04-10T02:01:09.479Z,9.23
2017-04-10T02:02:07.994Z,9.07
2017-04-10T02:03:06.474Z,9.72
2017-04-10T02:04:04.966Z,9.95
2017-04-10T02:05:03.546Z,10.17
2017-04-10T02:06:02.204Z,11.35
2017-04-10T02:07:00.732Z,10.00
2017-04-10T02:07:59.291Z,8.57
2017-04-10T02:08:57.795Z,9.05
2017-04-10T02:09:56.278Z,9.90
2017-04-10T02:10:54.890Z,9.85
2017-04-10T02:11:53.387Z,10.40
2017-04-10T02:12:51.881Z,10.12
2017-04-10T02:13:50.428Z,10.15
2017-04-10T02:14:49.045Z,10.32
2017-04-10T02:15:47.559Z,10.75
2017-04-10T02:16:46.098Z,10.67
2017-04-10T02:17:44.665Z,9.52
2017-04-10T02:18:43.165Z,10.33
2017-04-10T02:19:41.659Z,9.70
2017-04-10T02:20:40.158Z,11.17
2017-04-10T02:21:38.647Z,10.80
2017-04-10T02:22:37.151Z,10.25
2017-04-10T02:23:35.728Z,9.47
2017-04-10T02:24:34.208Z,10.30
2017-04-10T02:25:32.707Z,9.63
2017-04-10T02:26:31.215Z,10.28
2017-04-10T02:27:29.731Z,8.08
2017-04-10T02:28:28.239Z,9.38
2017-04-10T02:29:26.804Z,8.33
2017-04-10T02:30:25.709Z,9.17
2017-04-10T02:31:24.262Z,9.45
2017-04-10T02:32:23.287Z,10.50
2017-04-10T02:33:21.763Z,10.22
2017-04-10T02:34:20.251Z,8.67
2017-04-10T02:35:18.769Z,9.68
2017-04-10T02:36:17.363Z,9.88
2017-04-10T02:37:15.984Z,10.95
2017-04-10T02:38:14.475Z,9.38
2017-04-10T02:39:12.982Z,10.80
2017-04-10T02:40:11.495Z,9.53
2017-04-10T02:41:10.032Z,10.05
2017-04-10T02:42:08.590Z,9.13
2017-04-10T02:43:07.227Z,7.95
2017-04-10T02:44:05.715Z,7.90
2017-04-10T02:45:04.244Z,8.63
2017-04-10T02:46:02.803Z,9.92
2017-04-10T02:47:01.347Z,9.48
2017-04-10T02:48:00.013Z,8.48
2017-04-10T02:48:58.515Z,10.33
2017-04-10T02:49:57.053Z,8.15
2017-04-10T02:50:55.557Z,8.83
2017-04-10T02:51:54.279Z,9.05
2017-04-10T02:52:52.826Z,9.80
2017-04-10T02:53:51.319Z,9.35
2017-04-10T02:54:49.828Z,9.38
2017-04-10T02:55:48.292Z,9.00
2017-04-10T02:56:46.883Z,9.00
2017-04-10T02:57:45.367Z,9.35
2017-04-10T02:58:43.852Z,9.33
2017-04-10T02:59:42.458Z,8.88
2017-04-10T03:00:40.957Z,9.70
2017-04-10T03:01:39.538Z,9.07
2017-04-10T03:02:38.019Z,9.00
2017-04-10T03:03:36.480Z,8.27
2017-04-10T03:04:35.095Z,8.15
2017-04-10T03:05:33.671Z,7.07
2017-04-10T03:06:32.154Z,9.15
2017-04-10T03:07:30.823Z,8.33
2017-04-10T03:08:29.323Z,8.77
2017-04-10T03:09:27.848Z,10.55
2017-04-10T03:10:26.403Z,8.98
2017-04-10T03:11:24.933Z,8.60
2017-04-10T03:12:23.451Z,9.43
2017-04-10T03:13:21.959Z,8.58
2017-04-10T03:14:20.570Z,10.10
2017-04-10T03:15:19.187Z,9.35
2017-04-10T03:16:17.828Z,9.05
2017-04-10T03:17:16.478Z,8.38
2017-04-10T03:18:15.119Z,7.90
2017-04-10T03:19:13.774Z,8.65
2017-04-10T03:20:12.390Z,10.38
2017-04-10T03:21:10.943Z,8.75
2017-04-10T03:22:09.495Z,9.05
2017-04-10T03:23:07.987Z,7.92
2017-04-10T03:24:06.507Z,8.62
2017-04-10T03:25:05.088Z,9.28
2017-04-10T03:26:03.591Z,7.63
2017-04-10T03:27:02.078Z,9.18
2017-04-10T03:28:00.662Z,9.43
2017-04-10T03:28:59.265Z,9.70
2017-04-10T03:29:57.868Z,9.80
2017-04-10T03:30:56.491Z,8.95
2017-04-10T03:31:54.971Z,8.82
2017-04-10T03:32:53.579Z,7.52
2017-04-10T03:33:52.115Z,8.72
2017-04-10T03:34:50.619Z,9.03
2017-04-10T03:35:49.187Z,9.13
2017-04-10T03:36:47.670Z,9.00
2017-04-10T03:37:46.192Z,9.23
2017-04-10T03:38:44.712Z,9.52
2017-04-10T03:39:43.343Z,8.63
2017-04-10T03:40:41.822Z,9.12
2017-04-10T03:41:40.323Z,9.00
2017-04-10T03:42:38.819Z,8.38
2017-04-10T03:43:37.351Z,8.78
2017-04-10T03:44:35.899Z,8.47
2017-04-10T03:45:34.390Z,8.80
2017-04-10T03:46:32.895Z,9.07
2017-04-10T03:47:31.815Z,8.95
2017-04-10T03:48:30.335Z,9.30
2017-04-10T03:49:28.858Z,8.68
2017-04-10T03:50:27.511Z,8.80
2017-04-10T03:51:26.086Z,8.68
2017-04-10T03:52:24.571Z,9.87
2017-04-10T03:53:23.091Z,9.93
2017-04-10T03:54:21.689Z,9.80
2017-04-10T03:55:20.162Z,9.20
2017-04-10T03:56:19.388Z,8.47
2017-04-10T03:57:18.303Z,9.08
2017-04-10T03:58:16.827Z,9.05
2017-04-10T03:59:15.311Z,8.83
2017-04-10T04:00:13.854Z,9.32
2017-04-10T04:01:12.399Z,9.13
2017-04-10T04:02:10.863Z,8.95
2017-04-10T04:03:09.374Z,8.73
2017-04-10T04:04:07.916Z,8.63
2017-04-10T04:05:06.436Z,9.33
2017-04-10T04:06:05.083Z,10.02
2017-04-10T04:07:03.594Z,10.00
2017-04-10T04:08:02.115Z,10.08
2017-04-10T04:09:00.726Z,8.58
2017-04-10T04:09:59.214Z,8.88
2017-04-10T04:10:57.721Z,9.08
2017-04-10T04:11:56.202Z,9.97
2017-04-10T04:12:54.747Z,9.93
2017-04-10T04:13:53.244Z,9.18
2017-04-10T04:14:51.763Z,9.52
2017-04-10T04:15:50.263Z,8.88
2017-04-10T04:16:52.507Z,9.98
2017-04-10T04:17:51.012Z,10.25
2017-04-10T04:18:49.507Z,9.90
2017-04-10T04:19:47.996Z,9.30
2017-04-10T04:20:46.502Z,9.38
2017-04-10T04:21:45.083Z,9.87
2017-04-10T04:22:43.731Z,10.22
2017-04-10T04:23:42.223Z,9.58
2017-04-10T04:24:40.751Z,9.18
2017-04-10T04:25:39.266Z,8.75
2017-04-10T04:26:37.823Z,10.38
2017-04-10T04:27:36.307Z,9.12
2017-04-10T04:28:34.796Z,8.67
2017-04-10T04:29:33.284Z,8.82
2017-04-10T04:30:31.775Z,8.80
2017-04-10T04:31:30.371Z,9.42
2017-04-10T04:32:28.874Z,10.30
2017-04-10T04:33:27.383Z,9.18
2017-04-10T04:34:25.875Z,10.25
2017-04-10T04:35:24.380Z,9.30
2017-04-10T04:36:22.859Z,9.18
2017-04-10T04:37:21.379Z,8.73
2017-04-10T04:38:19.911Z,10.07
2017-04-10T04:39:18.770Z,10.35
2017-04-10T04:40:17.367Z,10.60
2017-04-10T04:41:15.847Z,9.03
2017-04-10T04:42:14.323Z,10.90
2017-04-10T04:43:12.911Z,10.22
2017-04-10T04:44:11.416Z,9.35
2017-04-10T04:45:09.898Z,8.87
2017-04-10T04:46:08.401Z,9.93
2017-04-10T04:47:07.005Z,9.92
2017-04-10T04:48:05.618Z,10.20
2017-04-10T04:49:04.307Z,9.15
2017-04-10T04:50:02.867Z,11.13
2017-04-10T04:51:01.382Z,10.45
2017-04-10T04:51:59.895Z,10.50
2017-04-10T04:52:58.426Z,10.00
2017-04-10T04:53:56.923Z,9.57
2017-04-10T04:54:55.456Z,9.00
2017-04-10T04:55:53.955Z,16.50
2017-04-10T04:56:52.427Z,13.45
2017-04-10T04:57:51.075Z,14.73
2017-04-10T04:58:49.740Z,35.02
2017-04-10T04:59:48.391Z,11.33
2017-04-10T05:00:47.031Z,9.62
2017-04-10T05:01:45.623Z,11.87
2017-04-10T05:02:44.231Z,10.97
2017-04-10T05:03:42.722Z,9.42
2017-04-10T05:04:41.235Z,10.70
2017-04-10T05:05:39.759Z,10.42
2017-04-10T05:06:38.223Z,9.20
2017-04-10T05:07:36.754Z,9.70
2017-04-10T05:08:35.259Z,10.27
2017-04-10T05:09:33.814Z,10.00
2017-04-10T05:10:32.451Z,10.03
2017-04-10T05:11:31.091Z,9.87
2017-04-10T05:12:29.658Z,8.88
2017-04-10T05:13:28.136Z,9.27
2017-04-10T05:14:26.666Z,11.00
2017-04-10T05:15:25.195Z,10.83
2017-04-10T05:16:23.687Z,10.35
2017-04-10T05:17:22.187Z,9.35
2017-04-10T05:18:20.708Z,10.58
2017-04-10T05:19:19.319Z,9.40
2017-04-10T05:20:17.839Z,10.27
2017-04-10T05:21:16.347Z,15.65
2017-04-10T05:22:15.828Z,12.20
2017-04-10T05:23:14.377Z,12.28
2017-04-10T05:24:12.919Z,11.23
2017-04-10T05:25:11.427Z,11.75
2017-04-10T05:26:10.191Z,10.67
2017-04-10T05:27:08.686Z,12.53
2017-04-10T05:28:07.175Z,10.77
2017-04-10T05:29:05.703Z,10.67
2017-04-10T05:30:04.254Z,11.07
2017-04-10T05:31:02.753Z,12.83
2017-04-10T05:32:01.239Z,13.28
2017-04-10T05:32:59.784Z,12.78
2017-04-10T05:33:58.287Z,12.45
2017-04-10T05:34:56.827Z,12.92
2017-04-10T05:35:55.364Z,14.33
2017-04-10T05:36:53.957Z,12.20
2017-04-10T05:37:52.595Z,12.70
2017-04-10T05:38:51.155Z,15.18
2017-04-10T05:39:49.627Z,20.18
2017-04-10T05:40:48.111Z,19.28
2017-04-10T05:41:46.647Z,16.55
2017-04-10T05:42:45.143Z,16.38
2017-04-10T05:43:43.631Z,15.58
2017-04-10T05:44:42.130Z,16.95
2017-04-10T05:45:40.775Z,16.32
2017-04-10T05:46:39.400Z,17.55
2017-04-10T05:47:37.891Z,18.80
2017-04-10T05:48:36.479Z,17.92
2017-04-10T05:49:34.995Z,17.25
2017-04-10T05:50:33.479Z,17.73
2017-04-10T05:51:31.995Z,19.52
2017-04-10T05:52:30.495Z,18.98
2017-04-10T05:53:29.018Z,19.53
2017-04-10T05:54:27.603Z,18.92
2017-04-10T05:55:26.235Z,19.95
2017-04-10T05:56:24.883Z,18.08
2017-04-10T05:57:23.362Z,19.10
2017-04-10T05:58:21.980Z,19.15
2017-04-10T05:59:20.511Z,19.57
2017-04-10T06:00:19.043Z,20.97
2017-04-10T06:01:17.615Z,18.42
2017-04-10T06:02:16.172Z,17.92
2017-04-10T06:03:14.686Z,20.27
2017-04-10T06:04:13.196Z,20.33
2017-04-10T06:05:12.011Z,21.57
2017-04-10T06:06:10.507Z,21.93
2017-04-10T06:07:09.023Z,20.30
2017-04-10T06:08:07.537Z,20.78
2017-04-10T06:09:06.547Z,21.50
2017-04-10T06:10:05.067Z,22.15
2017-04-10T06:11:03.563Z,21.35
2017-04-10T06:12:02.092Z,21.50
2017-04-10T06:13:00.692Z,24.07
2017-04-10T06:13:59.298Z,20.90
2017-04-10T06:14:58.526Z,22.52
2017-04-10T06:15:57.073Z,22.37
2017-04-10T06:16:55.616Z,20.67
2017-04-10T06:17:54.194Z,19.90
2017-04-10T06:18:52.791Z,22.75
2017-04-10T06:19:51.434Z,21.00
2017-04-10T06:20:50.028Z,22.40
2017-04-10T06:21:48.559Z,22.95
2017-04-10T06:22:47.090Z,22.45
2017-04-10T06:23:45.620Z,22.68
2017-04-10T06:24:44.191Z,23.25
2017-04-10T06:25:42.720Z,22.97
2017-04-10T06:26:41.229Z,22.72
2017-04-10T06:27:39.725Z,21.40
2017-04-10T06:28:38.395Z,21.65
2017-04-10T06:29:36.907Z,21.33
2017-04-10T06:30:35.568Z,23.15
2017-04-10T06:31:34.127Z,23.03
2017-04-10T06:32:33.850Z,22.38
2017-04-10T06:33:32.386Z,22.45
2017-04-10T06:34:31.062Z,23.73
2017-04-10T06:35:29.562Z,20.93
2017-04-10T06:36:28.171Z,23.48
2017-04-10T06:37:26.720Z,22.45
2017-04-10T06:38:25.215Z,24.40
2017-04-10T06:39:23.715Z,20.95
2017-04-10T06:40:22.206Z,23.05
2017-04-10T06:41:20.707Z,23.05
2017-04-10T06:42:19.235Z,22.85
2017-04-10T06:43:17.760Z,22.08
2017-04-10T06:44:16.267Z,23.10
2017-04-10T06:45:14.884Z,22.78
2017-04-10T06:46:13.406Z,23.30
2017-04-10T06:47:11.991Z,22.68
2017-04-10T06:48:10.496Z,24.22
2017-04-10T06:49:08.991Z,23.75
2017-04-10T06:50:07.471Z,23.95
2017-04-10T06:51:05.978Z,25.32
2017-04-10T06:52:04.520Z,22.97
2017-04-10T06:53:03.012Z,23.58
2017-04-10T06:54:01.562Z,24.53
2017-04-10T06:55:00.119Z,25.50
2017-04-10T06:55:58.659Z,23.10
2017-04-10T06:56:57.178Z,23.57
2017-04-10T06:57:55.696Z,25.22
2017-04-10T06:58:54.267Z,25.80
2017-04-10T06:59:52.767Z,25.78
2017-04-10T07:00:51.354Z,24.67
2017-04-10T07:01:49.979Z,24.28
2017-04-10T07:03:19.200Z,26.95
2017-04-10T07:04:17.827Z,23.60
2017-04-10T07:05:16.347Z,25.35
2017-04-10T07:06:15.003Z,25.98
2017-04-10T07:07:13.495Z,25.48
2017-04-10T07:08:11.995Z,22.50
2017-04-10T07:09:10.527Z,24.92
2017-04-10T07:10:09.059Z,22.65
2017-04-10T07:11:07.594Z,26.00
2017-04-10T07:12:06.107Z,24.93
2017-04-10T07:13:04.618Z,25.25
2017-04-10T07:14:03.143Z,24.78
2017-04-10T07:15:02.001Z,23.58
2017-04-10T07:16:00.599Z,24.72
2017-04-10T07:16:59.179Z,23.27
2017-04-10T07:17:57.707Z,25.98
2017-04-10T07:18:56.226Z,24.53
2017-04-10T07:19:54.739Z,24.73
2017-04-10T07:20:53.236Z,23.22
2017-04-10T07:21:51.759Z,24.13
2017-04-10T07:22:50.279Z,25.53
2017-04-10T07:23:48.812Z,24.47
2017-04-10T07:24:47.367Z,23.55
2017-04-10T07:25:45.860Z,27.90
2017-04-10T07:26:44.504Z,23.58
2017-04-10T07:27:43.010Z,25.68
2017-04-10T07:28:41.508Z,22.70
2017-04-10T07:29:40.011Z,22.68
2017-04-10T07:30:38.527Z,22.40
2017-04-10T07:31:37.034Z,23.22
2017-04-10T07:32:35.575Z,22.57
2017-04-10T07:33:34.091Z,22.12
2017-04-10T07:34:32.607Z,24.25
2017-04-10T07:35:31.148Z,24.35
2017-04-10T07:36:29.667Z,23.90
2017-04-10T07:37:28.210Z,25.18
2017-04-10T07:38:26.724Z,23.30
2017-04-10T07:39:25.247Z,24.45
2017-04-10T07:40:23.771Z,22.53
2017-04-10T07:41:22.263Z,26.00
2017-04-10T07:42:20.759Z,22.53
2017-04-10T07:43:19.316Z,21.98
2017-04-10T07:44:17.832Z,22.32
2017-04-10T07:45:16.466Z,22.27
2017-04-10T07:46:14.987Z,22.07
2017-04-10T07:47:13.514Z,22.02
2017-04-10T07:48:12.028Z,23.90
2017-04-10T07:49:10.530Z,21.95
2017-04-10T07:50:09.054Z,22.80
2017-04-10T07:51:07.568Z,23.18
2017-04-10T07:52:06.135Z,21.33
2017-04-10T07:53:04.702Z,24.93
2017-04-10T07:54:03.310Z,20.72
2017-04-10T07:55:01.832Z,22.08
2017-04-10T07:56:00.314Z,22.30
2017-04-10T07:56:58.844Z,22.80
2017-04-10T07:57:57.438Z,23.25
2017-04-10T07:58:55.974Z,21.53
2017-04-10T07:59:54.491Z,22.98
2017-04-10T08:00:53.013Z,22.67
2017-04-10T08:01:51.563Z,20.95
2017-04-10T08:02:50.058Z,22.05
2017-04-10T08:03:48.571Z,21.40
2017-04-10T08:04:47.100Z,23.33
2017-04-10T08:05:45.675Z,22.35
2017-04-10T08:06:44.230Z,22.03
2017-04-10T08:07:43.000Z,22.55
2017-04-10T08:08:41.555Z,23.15
2017-04-10T08:09:40.124Z,22.03
2017-04-10T08:10:38.695Z,22.97
2017-04-10T08:11:37.252Z,20.80
2017-04-10T08:12:35.794Z,22.12
2017-04-10T08:13:34.311Z,23.53
2017-04-10T08:14:32.840Z,23.85
2017-04-10T08:15:31.335Z,21.82
2017-04-10T08:16:29.839Z,22.35
2017-04-10T08:17:28.399Z,22.27
2017-04-10T08:18:26.900Z,23.33
2017-04-10T08:19:25.494Z,25.50
2017-04-10T08:20:24.020Z,22.87
2017-04-10T08:21:22.528Z,22.70
2017-04-10T08:22:21.058Z,20.97
2017-04-10T08:23:19.580Z,21.18
2017-04-10T08:24:18.071Z,22.42
2017-04-10T08:25:16.571Z,23.67
2017-04-10T08:26:15.083Z,24.00
2017-04-10T08:27:13.633Z,22.45
2017-04-10T08:28:12.180Z,23.88
2017-04-10T08:29:10.707Z,20.70
2017-04-10T08:30:09.403Z,23.47
2017-04-10T08:31:07.904Z,20.12
2017-04-10T08:32:06.451Z,23.02
2017-04-10T08:33:04.980Z,20.62
2017-04-10T08:34:03.520Z,23.77
2017-04-10T08:35:02.052Z,22.43
2017-04-10T08:36:00.605Z,23.38
2017-04-10T08:36:59.330Z,23.82
2017-04-10T08:37:57.978Z,24.52
2017-04-10T08:38:56.599Z,21.42
2017-04-10T08:39:55.227Z,21.67
2017-04-10T08:40:53.899Z,21.58
2017-04-10T08:41:52.501Z,21.38
2017-04-10T08:42:51.075Z,22.65
2017-04-10T08:43:49.587Z,22.40
2017-04-10T08:44:48.094Z,22.10
2017-04-10T08:45:46.627Z,23.45
2017-04-10T08:46:45.142Z,23.52
2017-04-10T08:47:43.632Z,24.70
2017-04-10T08:48:42.699Z,23.72
2017-04-10T08:49:41.252Z,22.05
2017-04-10T08:50:39.752Z,25.18
2017-04-10T08:51:39.348Z,24.73
2017-04-10T08:52:37.900Z,23.35
2017-04-10T08:53:36.407Z,23.93
2017-04-10T08:54:35.034Z,23.68
2017-04-10T08:55:33.650Z,23.75
2017-04-10T08:56:32.173Z,24.03
2017-04-10T08:57:30.695Z,24.75
2017-04-10T08:58:29.296Z,23.23
2017-04-10T08:59:27.873Z,23.98
2017-04-10T09:00:26.743Z,23.22
2017-04-10T09:01:25.239Z,23.32
2017-04-10T09:02:23.749Z,22.15
2017-04-10T09:03:22.355Z,25.35
2017-04-10T09:04:20.927Z,25.12
2017-04-10T09:05:19.444Z,22.75
2017-04-10T09:06:18.108Z,21.87
2017-04-10T09:07:16.639Z,23.83
2017-04-10T09:08:15.147Z,22.43
2017-04-10T09:09:13.719Z,24.15
2017-04-10T09:10:12.267Z,24.97
2017-04-10T09:11:10.859Z,23.43
2017-04-10T09:12:09.389Z,24.63
2017-04-10T09:13:07.971Z,23.27
2017-04-10T09:14:06.537Z,22.75
2017-04-10T09:15:05.142Z,26.88
2017-04-10T09:16:03.690Z,25.97
2017-04-10T09:17:02.199Z,32.28
2017-04-10T09:18:00.721Z,28.87
2017-04-10T09:18:59.252Z,23.68
2017-04-10T09:19:57.839Z,23.68
2017-04-10T09:20:56.351Z,22.12
2017-04-10T09:21:54.875Z,24.52
2017-04-10T09:22:53.453Z,23.10
2017-04-10T09:23:51.995Z,23.90
2017-04-10T09:24:50.542Z,24.55
2017-04-10T09:25:49.083Z,24.18
2017-04-10T09:26:47.584Z,24.70
2017-04-10T09:27:46.104Z,24.93
2017-04-10T09:28:44.588Z,23.40
2017-04-10T09:29:43.103Z,21.77
2017-04-10T09:30:41.623Z,21.93
2017-04-10T09:31:40.180Z,21.47
2017-04-10T09:32:38.687Z,21.55
2017-04-10T09:33:37.175Z,21.08
2017-04-10T09:34:35.716Z,21.67
2017-04-10T09:35:34.221Z,21.95
2017-04-10T09:36:32.846Z,22.73
2017-04-10T09:37:31.411Z,21.18
2017-04-10T09:38:30.107Z,20.05
2017-04-10T09:39:28.725Z,20.70
2017-04-10T09:40:27.800Z,21.15
2017-04-10T09:41:26.311Z,19.75
2017-04-10T09:42:24.790Z,22.27
2017-04-10T09:43:24.294Z,19.30
2017-04-10T09:44:22.868Z,21.93
2017-04-10T09:45:21.509Z,20.15
2017-04-10T09:46:20.118Z,20.02
2017-04-10T09:47:18.721Z,20.48
2017-04-10T09:48:17.249Z,20.32
2017-04-10T09:49:15.751Z,19.88
2017-04-10T09:50:14.311Z,20.02
2017-04-10T09:51:12.940Z,22.48
2017-04-10T09:52:11.509Z,21.07
2017-04-10T09:53:10.071Z,19.90
2017-04-10T09:54:08.543Z,20.42
2017-04-10T09:55:07.043Z,21.38
2017-04-10T09:56:05.594Z,21.87
2017-04-10T09:57:04.115Z,20.27
2017-04-10T09:58:02.720Z,19.82
2017-04-10T09:59:01.243Z,20.08
2017-04-10T09:59:59.794Z,18.63
2017-04-10T10:00:58.317Z,18.17
2017-04-10T10:01:56.994Z,17.57
2017-04-10T10:02:55.483Z,17.37
2017-04-10T10:03:53.959Z,19.28
2017-04-10T10:04:52.495Z,22.50
2017-04-10T10:05:51.075Z,18.07
2017-04-10T10:06:49.714Z,19.45
2017-04-10T10:07:48.289Z,20.92
2017-04-10T10:08:46.881Z,20.13
2017-04-10T10:09:45.513Z,18.90
2017-04-10T10:10:44.119Z,21.27
2017-04-10T10:11:42.622Z,20.27
2017-04-10T10:12:41.150Z,18.58
2017-04-10T10:13:39.788Z,18.60
2017-04-10T10:14:38.339Z,17.82
2017-04-10T10:15:36.860Z,15.18
2017-04-10T10:16:35.371Z,15.03
2017-04-10T10:17:33.929Z,14.10
2017-04-10T10:18:32.503Z,14.70
2017-04-10T10:19:31.052Z,16.00
2017-04-10T10:20:29.638Z,15.28
2017-04-10T10:21:28.139Z,16.12
2017-04-10T10:22:26.747Z,16.38
2017-04-10T10:23:25.300Z,17.53
2017-04-10T10:24:23.832Z,16.38
2017-04-10T10:25:22.407Z,18.10
2017-04-10T10:26:20.891Z,15.52
2017-04-10T10:27:19.433Z,17.30
2017-04-10T10:28:17.941Z,16.08
2017-04-10T10:29:16.454Z,16.03
2017-04-10T10:30:15.013Z,15.55
2017-04-10T10:31:13.520Z,15.83
2017-04-10T10:32:12.052Z,14.73
2017-04-10T10:33:10.579Z,16.15
2017-04-10T10:34:09.110Z,14.90
2017-04-10T10:35:07.582Z,16.50
2017-04-10T10:36:06.111Z,14.77
2017-04-10T10:37:04.662Z,15.27
2017-04-10T10:38:03.191Z,18.32
2017-04-10T10:39:01.675Z,18.25
2017-04-10T10:40:00.187Z,17.05
2017-04-10T10:40:58.723Z,18.22
2017-04-10T10:41:57.280Z,14.50
2017-04-10T10:42:55.803Z,16.27
2017-04-10T10:43:54.311Z,14.15
2017-04-10T10:44:52.869Z,13.83
2017-04-10T10:45:51.390Z,16.05
2017-04-10T10:46:49.891Z,15.78
2017-04-10T10:47:48.523Z,16.95
2017-04-10T10:48:47.059Z,13.80
2017-04-10T10:49:45.689Z,14.97
2017-04-10T10:50:44.323Z,13.32
2017-04-10T10:51:42.863Z,14.38
2017-04-10T10:52:41.353Z,15.02
2017-04-10T10:53:39.862Z,13.43
2017-04-10T10:54:38.527Z,13.80
2017-04-10T10:55:37.251Z,13.62
2017-04-10T10:56:35.819Z,40.60
2017-04-10T10:57:34.390Z,13.87
2017-04-10T10:58:32.895Z,13.37
2017-04-10T10:59:31.524Z,13.15
2017-04-10T11:00:30.098Z,12.15
2017-04-10T11:01:28.631Z,13.62
2017-04-10T11:02:27.486Z,13.57
2017-04-10T11:03:25.996Z,13.27
2017-04-10T11:04:24.520Z,12.95
2017-04-10T11:05:23.059Z,11.60
2017-04-10T11:06:21.605Z,13.33
2017-04-10T11:07:20.186Z,12.72
2017-04-10T11:08:18.687Z,13.67
2017-04-10T11:09:17.227Z,11.93
2017-04-10T11:10:15.847Z,12.32
2017-04-10T11:11:14.513Z,12.40
2017-04-10T11:12:13.046Z,13.17
2017-04-10T11:13:11.570Z,12.33
2017-04-10T11:14:10.060Z,10.77
2017-04-10T11:15:08.535Z,11.25
2017-04-10T11:16:07.100Z,12.23
2017-04-10T11:17:05.599Z,11.50
2017-04-10T11:18:04.119Z,11.45
2017-04-10T11:19:02.699Z,12.07
2017-04-10T11:20:01.238Z,11.77
2017-04-10T11:20:59.763Z,12.10
2017-04-10T11:21:58.444Z,12.13
2017-04-10T11:22:56.967Z,11.87
2017-04-10T11:23:55.486Z,11.72
2017-04-10T11:24:53.987Z,11.55
2017-04-10T11:25:52.546Z,12.88
2017-04-10T11:26:51.102Z,11.78
2017-04-10T11:27:49.647Z,12.68
2017-04-10T11:28:48.257Z,13.62
2017-04-10T11:29:46.923Z,14.08
2017-04-10T11:30:45.447Z,13.50
2017-04-10T11:31:44.059Z,13.02
2017-04-10T11:32:42.568Z,12.15
2017-04-10T11:33:41.135Z,11.50
2017-04-10T11:34:39.630Z,12.58
2017-04-10T11:35:38.175Z,13.33
2017-04-10T11:36:36.711Z,11.67
2017-04-10T11:37:35.222Z,11.78
2017-04-10T11:38:34.045Z,12.27
2017-04-10T11:39:32.566Z,10.67
2017-04-10T11:40:31.103Z,10.08
2017-04-10T11:41:29.627Z,10.83
2017-04-10T11:42:28.168Z,10.72
2017-04-10T11:43:26.667Z,9.72
2017-04-10T11:44:25.256Z,10.02
2017-04-10T11:45:23.883Z,9.75
2017-04-10T11:46:22.411Z,11.22
2017-04-10T11:47:20.922Z,10.45
2017-04-10T11:48:19.456Z,10.12
2017-04-10T11:49:18.020Z,9.97
2017-04-10T11:50:16.544Z,10.57
2017-04-10T11:51:15.127Z,11.48
2017-04-10T11:52:13.707Z,10.40
2017-04-10T11:53:12.257Z,11.63
2017-04-10T11:54:10.776Z,11.17
2017-04-10T11:55:09.355Z,10.45
2017-04-10T11:56:07.851Z,11.60
2017-04-10T11:57:06.396Z,9.80
2017-04-10T11:58:04.959Z,9.85
2017-04-10T11:59:03.542Z,10.90
2017-04-10T12:00:02.059Z,9.45
2017-04-10T12:01:00.551Z,10.52
2017-04-10T12:01:59.071Z,9.57
2017-04-10T12:02:57.576Z,9.48
2017-04-10T12:03:56.079Z,10.70
2017-04-10T12:04:54.611Z,11.98
2017-04-10T12:05:53.161Z,10.37
2017-04-10T12:06:51.686Z,9.87
2017-04-10T12:07:50.196Z,12.08
2017-04-10T12:08:48.707Z,9.98
2017-04-10T12:09:47.330Z,11.57
2017-04-10T12:10:45.937Z,11.88
2017-04-10T12:11:44.658Z,9.93
2017-04-10T12:12:43.239Z,10.55
2017-04-10T12:13:41.931Z,10.12
2017-04-10T12:14:40.575Z,11.03
2017-04-10T12:15:39.231Z,11.18
2017-04-10T12:16:37.803Z,10.05
2017-04-10T12:17:36.507Z,9.80
2017-04-10T12:18:35.955Z,10.95
2017-04-10T12:19:34.550Z,11.62
2017-04-10T12:20:33.062Z,10.38
2017-04-10T12:21:31.643Z,10.47
2017-04-10T12:22:30.204Z,10.32
2017-04-10T12:23:28.700Z,12.15
2017-04-10T12:24:27.219Z,11.05
2017-04-10T12:25:25.756Z,10.32
2017-04-10T12:26:24.333Z,10.88
2017-04-10T12:27:22.911Z,10.33
2017-04-10T12:28:21.618Z,11.38
2017-04-10T12:29:20.103Z,9.48
2017-04-10T12:30:18.667Z,10.38
2017-04-10T12:31:17.166Z,9.48
2017-04-10T12:32:15.687Z,9.30
2017-04-10T12:33:14.192Z,10.10
2017-04-10T12:34:12.705Z,11.18
2017-04-10T12:35:11.256Z,9.60
2017-04-10T12:36:09.842Z,10.67
2017-04-10T12:37:08.451Z,10.22
2017-04-10T12:38:07.135Z,9.87
2017-04-10T12:39:06.069Z,8.62
2017-04-10T12:40:04.596Z,10.70